< Typhoon 197114 1971 Season Typhoon 197116 >
Typhoon 197115 (KIM)
General InformationTrack Information on Google Maps || Disaster Info.ResourceGoogle EarthGE AnimationAtom FeedGeoJSON
Detalied Best Track (Time Zone = UTC)
Year Month Day Hour Lat. Long. Pressure (hPa) Wind (kt) Class Image Chart
1971 7 8 06 11.0 129.0 1002 0 2 -- Chart
1971 7 8 12 11.0 128.5 1002 0 2 -- Chart
1971 7 8 18 11.0 128.0 1002 0 2 -- Chart
1971 7 9 00 12.0 127.0 1002 0 2 -- Chart
1971 7 9 06 13.5 125.5 1002 0 2 -- Chart
1971 7 9 12 14.5 123.5 1002 0 2 -- Chart
1971 7 9 18 15.0 122.0 1002 0 2 -- Chart
1971 7 10 00 14.0 120.0 1002 0 2 -- Chart
1971 7 10 06 15.2 117.8 1000 0 2 -- Chart
1971 7 10 12 15.5 116.3 1000 0 2 -- Chart
1971 7 10 18 15.2 115.7 1000 0 2 -- Chart
1971 7 11 00 15.2 114.7 996 0 9 -- Chart
1971 7 11 06 15.0 114.0 995 0 9 -- Chart
1971 7 11 12 15.9 113.1 995 0 9 -- Chart
1971 7 11 18 16.2 111.8 990 0 9 -- Chart
1971 7 12 00 16.7 111.2 980 0 9 -- Chart
1971 7 12 06 17.2 110.2 980 0 9 -- Chart
1971 7 12 12 17.4 109.2 980 0 9 -- Chart
1971 7 12 18 17.8 108.2 980 0 9 -- Chart
1971 7 13 00 18.3 107.2 980 0 9 -- Chart
1971 7 13 06 18.5 106.0 985 0 9 -- Chart
1971 7 13 12 19.0 104.8 990 0 9 -- Chart
1971 7 13 18 19.0 103.0 992 0 9 -- Chart
1971 7 14 00 19.5 101.0 996 0 2 -- Chart
1971 7 14 06 20.3 99.3 996 0 2 -- Chart
1971 7 14 12 21.0 97.5 998 0 2 -- Chart
1971 7 14 18 21.6 96.3 1000 0 2 -- Chart
Japan Meteorological Agency Best Track Data | Correction Date : 1990-10-17
< Typhoon 197114 1971 Season Typhoon 197116 >

Help